Time;durP1;ratioP1;P1;durP2;ratioP2;P2;SDS_P1;SDS_P2;PMS_P1;PMS_P2;Temp;Humidity;BMP_temperature;BMP_pressure;BME280_temperature;BME280_humidity;BME280_pressure;Samples;Min_cycle;Max_cycle;Signal;HPM_P1;HPM_P2
2022/05/18 00:00:05;;;;;;;2.73;2.53;;;;;;;;;;5064770;28;20450;-77
2022/05/18 00:02:31;;;;;;;4.87;2.40;;;;;;;;;;5067254;28;20417;-75
2022/05/18 00:04:57;;;;;;;4.07;2.73;;;;;;;;;;5067001;28;20472;-76
2022/05/18 00:07:23;;;;;;;2.90;2.90;;;;;;;;;;5064983;28;20430;-74
2022/05/18 00:09:51;;;;;;;2.80;2.70;;;;;;;;;;5066242;28;20442;-74
2022/05/18 00:12:17;;;;;;;4.00;2.87;;;;;;;;;;5067885;28;20426;-75
2022/05/18 00:14:43;;;;;;;3.33;3.13;;;;;;;;;;5068465;28;20476;-75
2022/05/18 00:17:09;;;;;;;3.00;2.90;;;;;;;;;;5062489;28;20425;-74
2022/05/18 00:19:35;;;;;;;4.27;2.73;;;;;;;;;;5067625;28;20440;-77
2022/05/18 00:22:01;;;;;;;3.13;2.93;;;;;;;;;;5066999;28;20437;-74
2022/05/18 00:24:27;;;;;;;3.47;2.60;;;;;;;;;;5066021;28;20445;-77
2022/05/18 00:26:53;;;;;;;2.37;2.37;;;;;;;;;;5065896;28;20472;-75
2022/05/18 00:29:19;;;;;;;2.30;2.30;;;;;;;;;;5068204;28;20461;-75
2022/05/18 00:31:48;;;;;;;1.90;1.90;;;;;;;;;;5063352;28;20893;-77
2022/05/18 00:34:16;;;;;;;2.73;2.63;;;;;;;;;;5066515;28;20839;-75
2022/05/18 00:36:42;;;;;;;2.80;2.57;;;;;;;;;;5066310;28;20429;-76
2022/05/18 00:39:08;;;;;;;3.73;1.93;;;;;;;;;;5068368;28;20426;-74
2022/05/18 00:41:34;;;;;;;2.33;2.20;;;;;;;;;;5066015;28;20422;-76
2022/05/18 00:44:00;;;;;;;2.13;2.13;;;;;;;;;;5064993;28;20448;-76
2022/05/18 00:46:26;;;;;;;6.77;2.60;;;;;;;;;;5067424;28;20425;-75
2022/05/18 00:48:53;;;;;;;3.30;2.53;;;;;;;;;;5067830;28;20473;-76
2022/05/18 00:51:19;;;;;;;2.63;2.53;;;;;;;;;;5065813;28;20437;-75
2022/05/18 00:53:48;;;;;;;4.50;2.87;;;;;;;;;;5065369;28;20833;-75
2022/05/18 00:56:19;;;;;;;6.07;2.90;;;;;;;;;;5065895;28;20223;-77
2022/05/18 00:59:05;;;;;;;2.07;1.93;;;;;;;;;;5065871;28;20432;-75
2022/05/18 01:01:31;;;;;;;2.20;2.10;;;;;;;;;;5065221;28;20445;-75
2022/05/18 01:03:58;;;;;;;2.30;2.20;;;;;;;;;;5066581;28;20925;-75
2022/05/18 01:06:24;;;;;;;5.90;2.60;;;;;;;;;;5064506;28;20512;-76
2022/05/18 01:08:53;;;;;;;2.80;2.70;;;;;;;;;;5063129;28;20938;-74
2022/05/18 01:11:19;;;;;;;2.70;2.53;;;;;;;;;;5067365;28;20437;-76
2022/05/18 01:13:46;;;;;;;5.80;2.20;;;;;;;;;;5065073;28;20426;-78
2022/05/18 01:16:13;;;;;;;4.83;2.23;;;;;;;;;;5064822;28;20496;-74
2022/05/18 01:18:39;;;;;;;5.00;2.27;;;;;;;;;;5066810;28;20429;-75
2022/05/18 01:21:05;;;;;;;8.33;3.00;;;;;;;;;;5071375;28;20437;-76
2022/05/18 01:23:34;;;;;;;3.00;2.90;;;;;;;;;;5069537;28;20436;-75
2022/05/18 01:26:06;;;;;;;2.83;2.73;;;;;;;;;;5071569;28;20467;-75
2022/05/18 01:28:35;;;;;;;2.83;2.67;;;;;;;;;;5069834;28;20437;-77
2022/05/18 01:31:04;;;;;;;2.77;2.67;;;;;;;;;;5069580;28;20437;-75
2022/05/18 01:33:30;;;;;;;2.50;2.40;;;;;;;;;;5069515;28;20436;-75
2022/05/18 01:35:56;;;;;;;2.57;2.50;;;;;;;;;;5068672;28;20559;-77
2022/05/18 01:38:22;;;;;;;3.33;3.07;;;;;;;;;;5068863;28;20532;-75
2022/05/18 01:41:00;;;;;;;3.13;3.03;;;;;;;;;;5069385;28;20430;-75
2022/05/18 01:43:41;;;;;;;2.40;2.30;;;;;;;;;;5068437;28;20495;-77
2022/05/18 01:46:09;;;;;;;6.30;3.10;;;;;;;;;;5067152;28;20436;-76
2022/05/18 01:48:40;;;;;;;3.80;3.23;;;;;;;;;;5068140;28;20440;-75
2022/05/18 01:51:07;;;;;;;3.57;3.23;;;;;;;;;;5067414;28;20770;-76
2022/05/18 01:53:34;;;;;;;4.60;2.60;;;;;;;;;;5068845;28;20467;-76
2022/05/18 01:56:00;;;;;;;2.90;2.70;;;;;;;;;;5070301;28;20515;-75
2022/05/18 01:58:26;;;;;;;2.40;2.30;;;;;;;;;;5071245;28;20440;-74
2022/05/18 02:00:52;;;;;;;3.10;3.00;;;;;;;;;;5066769;28;20441;-75
2022/05/18 02:03:19;;;;;;;3.37;2.90;;;;;;;;;;5067938;28;20437;-75
2022/05/18 02:05:45;;;;;;;2.90;2.70;;;;;;;;;;5070801;28;20437;-76
2022/05/18 02:08:12;;;;;;;2.90;2.80;;;;;;;;;;5068481;28;20429;-75
2022/05/18 02:10:38;;;;;;;4.43;3.30;;;;;;;;;;5068425;28;20441;-74
2022/05/18 02:13:05;;;;;;;2.50;2.40;;;;;;;;;;5070823;28;20429;-77
2022/05/18 02:15:31;;;;;;;3.77;3.03;;;;;;;;;;5067386;28;20512;-76
2022/05/18 02:17:57;;;;;;;2.97;2.87;;;;;;;;;;5070658;28;20422;-76
2022/05/18 02:20:23;;;;;;;3.77;3.47;;;;;;;;;;5069969;28;20476;-77
2022/05/18 02:22:51;;;;;;;4.03;3.73;;;;;;;;;;5069329;28;20425;-75
2022/05/18 02:25:17;;;;;;;9.20;3.90;;;;;;;;;;5068743;28;20453;-76
2022/05/18 02:27:44;;;;;;;9.00;4.07;;;;;;;;;;5070600;28;20481;-75
2022/05/18 02:30:10;;;;;;;4.37;4.17;;;;;;;;;;5068502;28;20422;-76
2022/05/18 02:32:36;;;;;;;3.57;3.37;;;;;;;;;;5068882;28;20430;-77
2022/05/18 02:35:04;;;;;;;5.27;4.23;;;;;;;;;;5068880;28;21003;-74
2022/05/18 02:37:30;;;;;;;4.10;3.70;;;;;;;;;;5066709;28;20417;-74
2022/05/18 02:39:56;;;;;;;3.30;3.30;;;;;;;;;;5069425;28;20818;-77
2022/05/18 02:42:22;;;;;;;3.63;3.43;;;;;;;;;;5070020;28;20462;-76
2022/05/18 02:44:48;;;;;;;3.20;2.97;;;;;;;;;;5068221;28;20449;-75
2022/05/18 02:47:14;;;;;;;3.60;3.30;;;;;;;;;;5068879;28;20418;-74
2022/05/18 02:49:40;;;;;;;3.57;3.50;;;;;;;;;;5066946;28;20496;-76
2022/05/18 02:52:06;;;;;;;4.33;3.03;;;;;;;;;;5064419;28;20946;-74
2022/05/18 02:57:19;;;;;;;2.53;2.43;;;;;;;;;;5067214;28;20458;-75
2022/05/18 02:59:45;;;;;;;2.77;2.57;;;;;;;;;;5067233;28;20417;-76
2022/05/18 03:02:11;;;;;;;3.33;2.63;;;;;;;;;;5067943;28;20429;-77
2022/05/18 03:04:37;;;;;;;6.50;2.67;;;;;;;;;;5068503;28;20465;-77
2022/05/18 03:07:03;;;;;;;4.20;3.20;;;;;;;;;;5069248;28;20713;-74
2022/05/18 03:09:29;;;;;;;2.60;2.60;;;;;;;;;;5068661;28;20438;-75
2022/05/18 03:11:56;;;;;;;2.90;2.70;;;;;;;;;;5066585;28;20425;-75
2022/05/18 03:14:22;;;;;;;3.23;3.00;;;;;;;;;;5068339;28;20525;-75
2022/05/18 03:16:48;;;;;;;2.83;2.73;;;;;;;;;;5068033;28;20496;-77
2022/05/18 03:19:14;;;;;;;6.20;3.10;;;;;;;;;;5069384;28;20468;-76
2022/05/18 03:24:25;;;;;;;2.87;2.77;;;;;;;;;;5068941;28;20487;-76
2022/05/18 03:26:51;;;;;;;2.83;2.63;;;;;;;;;;5066948;28;20644;-76
2022/05/18 03:29:18;;;;;;;3.33;3.23;;;;;;;;;;5068701;28;20434;-76
2022/05/18 03:31:44;;;;;;;6.33;3.70;;;;;;;;;;5066764;28;20437;-74
2022/05/18 03:34:10;;;;;;;2.67;2.57;;;;;;;;;;5068574;28;20426;-75
2022/05/18 03:36:37;;;;;;;3.33;3.13;;;;;;;;;;5067419;28;20441;-75
2022/05/18 03:39:04;;;;;;;5.33;3.70;;;;;;;;;;5066435;28;20956;-74
2022/05/18 03:41:30;;;;;;;10.63;3.90;;;;;;;;;;5064912;28;20803;-75
2022/05/18 03:43:56;;;;;;;3.33;3.27;;;;;;;;;;5069466;28;20429;-75
2022/05/18 03:46:22;;;;;;;2.90;2.80;;;;;;;;;;5062590;28;20463;-76
2022/05/18 03:48:48;;;;;;;3.10;2.90;;;;;;;;;;5066601;28;20469;-76
2022/05/18 03:51:16;;;;;;;3.47;3.13;;;;;;;;;;5066285;28;20960;-76
2022/05/18 03:53:42;;;;;;;3.30;3.10;;;;;;;;;;5068479;28;20460;-76
2022/05/18 03:56:08;;;;;;;4.40;3.03;;;;;;;;;;5067236;28;20484;-74
2022/05/18 03:58:34;;;;;;;3.37;3.07;;;;;;;;;;5066752;28;20434;-77
2022/05/18 04:01:01;;;;;;;4.90;2.80;;;;;;;;;;5069143;28;20541;-75
2022/05/18 04:03:28;;;;;;;4.40;4.20;;;;;;;;;;5064567;28;20937;-76
2022/05/18 04:05:54;;;;;;;3.57;3.27;;;;;;;;;;5067536;28;20445;-77
2022/05/18 04:08:20;;;;;;;4.40;3.70;;;;;;;;;;5068386;28;20868;-74
2022/05/18 04:10:46;;;;;;;6.57;2.90;;;;;;;;;;5066728;28;20442;-75
2022/05/18 04:13:14;;;;;;;2.77;2.67;;;;;;;;;;5064474;28;20430;-77
2022/05/18 04:15:40;;;;;;;3.33;3.23;;;;;;;;;;5067197;28;20548;-74
2022/05/18 04:18:06;;;;;;;5.40;3.37;;;;;;;;;;5065317;28;21035;-75
2022/05/18 04:20:32;;;;;;;13.33;3.17;;;;;;;;;;5069071;28;20523;-76
2022/05/18 04:22:58;;;;;;;4.57;3.27;;;;;;;;;;5069136;28;20421;-74
2022/05/18 04:25:26;;;;;;;3.30;3.20;;;;;;;;;;5063325;28;20437;-76
2022/05/18 04:27:52;;;;;;;3.37;3.07;;;;;;;;;;5067231;28;20440;-76
2022/05/18 04:30:19;;;;;;;4.23;3.80;;;;;;;;;;5067473;28;20972;-77
2022/05/18 04:32:46;;;;;;;5.33;3.90;;;;;;;;;;5066560;28;20941;-75
2022/05/18 04:35:13;;;;;;;4.13;3.80;;;;;;;;;;5067199;28;21015;-76
2022/05/18 04:37:39;;;;;;;5.40;3.47;;;;;;;;;;5067162;28;20943;-75
2022/05/18 04:40:06;;;;;;;4.20;4.00;;;;;;;;;;5065543;28;20437;-77
2022/05/18 04:42:32;;;;;;;6.20;3.97;;;;;;;;;;5065965;28;20483;-76
2022/05/18 04:44:58;;;;;;;4.63;4.00;;;;;;;;;;5066083;28;20445;-76
2022/05/18 04:47:24;;;;;;;4.17;3.67;;;;;;;;;;5066103;28;20444;-76
2022/05/18 04:49:51;;;;;;;7.03;3.73;;;;;;;;;;5065837;28;20540;-76
2022/05/18 04:52:21;;;;;;;8.83;6.00;;;;;;;;;;5063018;28;20874;-73
2022/05/18 04:54:47;;;;;;;5.23;3.77;;;;;;;;;;5066321;28;20472;-74
2022/05/18 04:57:13;;;;;;;2.90;2.70;;;;;;;;;;5067513;28;20446;-74
2022/05/18 04:59:39;;;;;;;2.83;2.73;;;;;;;;;;5067227;28;20879;-77
2022/05/18 05:02:05;;;;;;;2.97;2.77;;;;;;;;;;5066317;28;20502;-75
2022/05/18 05:04:32;;;;;;;3.87;3.50;;;;;;;;;;5066373;28;20426;-74
2022/05/18 05:06:58;;;;;;;3.70;3.40;;;;;;;;;;5065951;28;20437;-74
2022/05/18 05:09:24;;;;;;;3.90;3.60;;;;;;;;;;5068712;28;20432;-77
2022/05/18 05:11:50;;;;;;;5.40;2.93;;;;;;;;;;5068400;28;20753;-74
2022/05/18 05:14:17;;;;;;;3.40;3.10;;;;;;;;;;5067593;28;20429;-74
2022/05/18 05:16:43;;;;;;;3.37;3.17;;;;;;;;;;5069415;28;20413;-76
2022/05/18 05:19:09;;;;;;;3.43;3.33;;;;;;;;;;5068747;28;20409;-74
2022/05/18 05:21:36;;;;;;;3.23;3.13;;;;;;;;;;5066373;28;20500;-74
2022/05/18 05:24:02;;;;;;;3.40;3.20;;;;;;;;;;5062654;28;20451;-74
2022/05/18 05:26:28;;;;;;;3.80;3.60;;;;;;;;;;5064645;28;20444;-74
2022/05/18 05:28:54;;;;;;;3.50;3.30;;;;;;;;;;5063417;28;20433;-75
2022/05/18 05:31:20;;;;;;;10.43;3.73;;;;;;;;;;5061314;28;20461;-76
2022/05/18 05:33:46;;;;;;;6.10;4.07;;;;;;;;;;5065582;28;20434;-76
2022/05/18 05:36:12;;;;;;;4.23;3.90;;;;;;;;;;5063164;28;20476;-76
2022/05/18 05:38:38;;;;;;;4.37;3.23;;;;;;;;;;5066256;28;20452;-74
2022/05/18 05:41:05;;;;;;;3.20;3.10;;;;;;;;;;5067589;28;20979;-75
2022/05/18 05:43:31;;;;;;;4.83;3.77;;;;;;;;;;5068113;28;20516;-77
2022/05/18 05:46:07;;;;;;;5.77;4.20;;;;;;;;;;5065017;28;20533;-77
2022/05/18 05:48:33;;;;;;;5.67;3.80;;;;;;;;;;5066010;28;20482;-75
2022/05/18 05:51:00;;;;;;;4.00;3.53;;;;;;;;;;5066494;28;20553;-75
2022/05/18 05:53:26;;;;;;;3.77;3.47;;;;;;;;;;5068089;28;20432;-76
2022/05/18 05:55:53;;;;;;;3.70;3.37;;;;;;;;;;5066401;28;20500;-75
2022/05/18 05:58:20;;;;;;;8.83;3.90;;;;;;;;;;5065904;28;20913;-76
2022/05/18 06:00:47;;;;;;;5.23;4.70;;;;;;;;;;5065524;28;20440;-75
2022/05/18 06:03:16;;;;;;;6.57;3.90;;;;;;;;;;5065496;28;20516;-76
2022/05/18 06:05:42;;;;;;;7.87;5.27;;;;;;;;;;5065496;28;20789;-74
2022/05/18 06:08:08;;;;;;;4.40;4.10;;;;;;;;;;5068104;28;20455;-76
2022/05/18 06:10:35;;;;;;;5.70;5.20;;;;;;;;;;5068057;28;20525;-75
2022/05/18 06:13:11;;;;;;;6.73;5.50;;;;;;;;;;5070666;28;20528;-76
2022/05/18 06:15:37;;;;;;;5.27;5.00;;;;;;;;;;5066886;28;20491;-75
2022/05/18 06:18:03;;;;;;;13.17;5.70;;;;;;;;;;5063805;28;20910;-74
2022/05/18 06:20:29;;;;;;;6.73;5.17;;;;;;;;;;5068378;28;20476;-75
2022/05/18 06:22:58;;;;;;;6.03;5.13;;;;;;;;;;5068999;28;20819;-68
2022/05/18 06:25:24;;;;;;;6.68;5.20;;;;;;;;;;5064329;28;21071;-73
2022/05/18 06:27:50;;;;;;;5.83;5.00;;;;;;;;;;5067659;28;20679;-76
2022/05/18 06:30:16;;;;;;;5.67;5.27;;;;;;;;;;5067386;28;20494;-75
2022/05/18 06:32:42;;;;;;;3.10;3.00;;;;;;;;;;5066017;28;20433;-76
2022/05/18 06:35:08;;;;;;;5.97;5.50;;;;;;;;;;5066474;28;20485;-74
2022/05/18 06:37:34;;;;;;;5.03;4.63;;;;;;;;;;5069588;28;20440;-75
2022/05/18 06:40:05;;;;;;;4.70;4.47;;;;;;;;;;5068807;28;20464;-75
2022/05/18 06:42:31;;;;;;;6.40;5.00;;;;;;;;;;5066536;28;20914;-75
2022/05/18 06:44:58;;;;;;;13.00;4.73;;;;;;;;;;5067143;28;20433;-75
2022/05/18 06:47:25;;;;;;;5.30;4.90;;;;;;;;;;5070445;28;20472;-75
2022/05/18 06:49:52;;;;;;;7.17;5.27;;;;;;;;;;5066683;28;20469;-75
2022/05/18 06:52:18;;;;;;;5.50;5.20;;;;;;;;;;5068528;28;20421;-77
2022/05/18 06:54:45;;;;;;;6.10;5.70;;;;;;;;;;5066795;28;20549;-73
2022/05/18 06:57:11;;;;;;;6.37;5.83;;;;;;;;;;5068831;28;20532;-74
2022/05/18 06:59:37;;;;;;;9.67;6.77;;;;;;;;;;5065952;28;20443;-74
2022/05/18 07:02:03;;;;;;;7.73;6.47;;;;;;;;;;5067857;28;20467;-73
2022/05/18 07:04:29;;;;;;;7.93;6.17;;;;;;;;;;5068458;28;20429;-73
2022/05/18 07:06:55;;;;;;;7.63;5.83;;;;;;;;;;5069730;28;20579;-73
2022/05/18 07:09:23;;;;;;;12.77;6.83;;;;;;;;;;5069419;28;20428;-73
2022/05/18 07:11:49;;;;;;;6.10;5.70;;;;;;;;;;5070063;28;20478;-76
2022/05/18 07:14:19;;;;;;;7.83;5.73;;;;;;;;;;5067702;28;20949;-76
2022/05/18 07:16:46;;;;;;;7.70;6.27;;;;;;;;;;5070172;28;20440;-76
2022/05/18 07:19:12;;;;;;;8.17;5.83;;;;;;;;;;5070829;28;20994;-73
2022/05/18 07:21:38;;;;;;;5.83;4.97;;;;;;;;;;5069422;28;20430;-77
2022/05/18 07:24:05;;;;;;;5.70;5.07;;;;;;;;;;5063965;28;20433;-75
2022/05/18 07:26:31;;;;;;;5.13;4.73;;;;;;;;;;5067432;28;20520;-77
2022/05/18 07:28:57;;;;;;;6.33;5.20;;;;;;;;;;5069032;28;20468;-73
2022/05/18 07:31:24;;;;;;;8.87;5.70;;;;;;;;;;5064812;28;20867;-76
2022/05/18 07:33:50;;;;;;;6.00;5.40;;;;;;;;;;5065792;28;20457;-75
2022/05/18 07:36:16;;;;;;;6.83;6.13;;;;;;;;;;5069841;28;20484;-75
2022/05/18 07:38:43;;;;;;;5.83;5.43;;;;;;;;;;5068969;28;20444;-75
2022/05/18 07:41:10;;;;;;;8.20;5.60;;;;;;;;;;5069636;28;20476;-76
2022/05/18 07:43:36;;;;;;;6.17;5.70;;;;;;;;;;5067675;28;20921;-74
2022/05/18 07:46:02;;;;;;;17.63;6.27;;;;;;;;;;5069770;28;21016;-73
2022/05/18 07:48:29;;;;;;;6.50;5.67;;;;;;;;;;5068361;28;20917;-76
2022/05/18 07:50:57;;;;;;;10.93;6.00;;;;;;;;;;5064020;28;20477;-74
2022/05/18 07:53:23;;;;;;;6.63;6.03;;;;;;;;;;5067952;28;20512;-74
2022/05/18 07:55:49;;;;;;;8.33;5.93;;;;;;;;;;5065222;28;20580;-73
2022/05/18 07:58:16;;;;;;;5.10;4.80;;;;;;;;;;5068753;28;20433;-74
2022/05/18 08:00:43;;;;;;;5.17;4.87;;;;;;;;;;5065585;28;20505;-73
2022/05/18 08:03:09;;;;;;;7.07;5.67;;;;;;;;;;5068367;28;20509;-73
2022/05/18 08:05:35;;;;;;;9.33;6.83;;;;;;;;;;5066303;28;20477;-73
2022/05/18 08:08:09;;;;;;;8.83;6.23;;;;;;;;;;5069664;28;20455;-73
2022/05/18 08:16:26;;;;;;;6.03;4.73;;;;;;;;;;5006597;28;20482;-74
2022/05/18 08:18:52;;;;;;;11.03;5.53;;;;;;;;;;5044380;28;20495;-73
2022/05/18 08:21:18;;;;;;;10.97;5.10;;;;;;;;;;5067158;28;20432;-73
2022/05/18 08:23:45;;;;;;;11.67;6.50;;;;;;;;;;5069095;28;20422;-76
2022/05/18 08:26:11;;;;;;;7.37;5.37;;;;;;;;;;5067612;28;20425;-76
2022/05/18 08:28:37;;;;;;;5.03;4.70;;;;;;;;;;5068530;28;20516;-73
2022/05/18 08:31:04;;;;;;;8.20;5.30;;;;;;;;;;5066941;28;20515;-72
2022/05/18 08:33:31;;;;;;;11.33;5.33;;;;;;;;;;5066106;28;20445;-73
2022/05/18 08:35:58;;;;;;;10.67;4.40;;;;;;;;;;5063659;28;20488;-73
2022/05/18 08:38:24;;;;;;;6.90;4.47;;;;;;;;;;5069781;28;20448;-75
2022/05/18 08:40:57;;;;;;;17.67;4.93;;;;;;;;;;5066312;28;20980;-73
2022/05/18 08:43:31;;;;;;;8.57;4.87;;;;;;;;;;5069761;28;20917;-76
2022/05/18 08:46:03;;;;;;;10.33;5.00;;;;;;;;;;5064796;28;20840;-73
2022/05/18 08:48:41;;;;;;;4.20;3.60;;;;;;;;;;5068682;28;20441;-74
2022/05/18 08:51:18;;;;;;;8.73;2.83;;;;;;;;;;5068041;28;20432;-74
2022/05/18 08:53:53;;;;;;;3.30;3.00;;;;;;;;;;5069128;28;20425;-74
2022/05/18 08:56:24;;;;;;;2.70;2.50;;;;;;;;;;5068092;28;20480;-76
2022/05/18 08:58:51;;;;;;;9.10;3.80;;;;;;;;;;5068953;28;20468;-76
2022/05/18 09:01:35;;;;;;;3.73;2.50;;;;;;;;;;5063946;28;20597;-73
2022/05/18 09:04:10;;;;;;;4.03;3.00;;;;;;;;;;5066595;28;20437;-76
2022/05/18 09:06:42;;;;;;;3.63;3.20;;;;;;;;;;5068566;28;20441;-76
2022/05/18 09:11:55;;;;;;;3.57;3.27;;;;;;;;;;5066000;28;20431;-74
2022/05/18 09:14:21;;;;;;;3.60;3.50;;;;;;;;;;5067822;28;20516;-73
2022/05/18 09:17:08;;;;;;;3.67;3.40;;;;;;;;;;5066701;28;20445;-73
2022/05/18 09:19:39;;;;;;;10.23;3.43;;;;;;;;;;5045648;28;20475;-76
2022/05/18 09:22:07;;;;;;;8.57;3.00;;;;;;;;;;5067584;28;20421;-76
2022/05/18 09:24:40;;;;;;;3.27;2.77;;;;;;;;;;5067378;28;20469;-73
2022/05/18 09:27:08;;;;;;;6.23;2.40;;;;;;;;;;5064152;28;20443;-75
2022/05/18 09:29:41;;;;;;;7.70;3.27;;;;;;;;;;5067470;28;20521;-75
2022/05/18 09:32:09;;;;;;;2.43;2.33;;;;;;;;;;5066921;28;20436;-73
2022/05/18 09:34:44;;;;;;;3.03;2.93;;;;;;;;;;5067177;28;20434;-76
2022/05/18 09:37:10;;;;;;;2.73;2.47;;;;;;;;;;5062755;28;20446;-75
2022/05/18 09:39:41;;;;;;;3.43;2.17;;;;;;;;;;5067490;28;20512;-73
2022/05/18 09:42:18;;;;;;;1.97;1.97;;;;;;;;;;5071053;28;20461;-72
2022/05/18 09:44:49;;;;;;;2.67;2.57;;;;;;;;;;5072530;28;20467;-74
2022/05/18 09:47:18;;;;;;;2.30;2.10;;;;;;;;;;5071223;28;20462;-73
2022/05/18 09:49:49;;;;;;;3.60;2.33;;;;;;;;;;5071061;28;20473;-75
2022/05/18 09:52:18;;;;;;;3.83;2.60;;;;;;;;;;5068392;28;20448;-75
2022/05/18 09:54:44;;;;;;;2.27;2.17;;;;;;;;;;5052268;28;20469;-73
2022/05/18 09:57:22;;;;;;;3.13;1.90;;;;;;;;;;5072799;28;20429;-73
2022/05/18 09:59:55;;;;;;;4.23;2.20;;;;;;;;;;5064778;28;20446;-74
2022/05/18 10:07:53;;;;;;;6.03;5.00;;;;;;;;;;5065034;28;20796;-73
2022/05/18 10:10:19;;;;;;;2.47;2.40;;;;;;;;;;5066415;28;20430;-75
2022/05/18 10:13:00;;;;;;;1.60;1.60;;;;;;;;;;5069552;28;20472;-75
2022/05/18 10:15:26;;;;;;;4.10;2.60;;;;;;;;;;5067126;28;20984;-73
2022/05/18 10:17:54;;;;;;;2.73;2.63;;;;;;;;;;5068064;28;20444;-73
2022/05/18 10:20:34;;;;;;;3.50;2.27;;;;;;;;;;5068778;28;20437;-74
2022/05/18 10:23:00;;;;;;;2.37;2.27;;;;;;;;;;5067164;28;20503;-71
2022/05/18 10:25:47;;;;;;;1.97;1.70;;;;;;;;;;5064482;28;20778;-73
2022/05/18 10:28:21;;;;;;;2.10;2.00;;;;;;;;;;5067175;28;20484;-73
2022/05/18 10:31:02;;;;;;;4.57;2.50;;;;;;;;;;5068199;28;20522;-72
2022/05/18 10:33:34;;;;;;;2.23;2.10;;;;;;;;;;5061491;28;20446;-72
2022/05/18 10:36:11;;;;;;;1.87;1.77;;;;;;;;;;5067013;28;20493;-73
2022/05/18 10:38:38;;;;;;;2.47;2.40;;;;;;;;;;5069396;28;20932;-74
2022/05/18 10:41:04;;;;;;;7.97;2.00;;;;;;;;;;5070234;28;20457;-73
2022/05/18 10:43:32;;;;;;;2.53;2.33;;;;;;;;;;5069402;28;20453;-73
2022/05/18 10:46:01;;;;;;;4.33;1.70;;;;;;;;;;5068774;28;20516;-72
2022/05/18 10:48:28;;;;;;;2.07;2.07;;;;;;;;;;5069369;28;20441;-74
2022/05/18 10:51:03;;;;;;;1.90;1.90;;;;;;;;;;5070259;28;21009;-73
2022/05/18 10:53:40;;;;;;;4.47;1.93;;;;;;;;;;5069416;28;20436;-74
2022/05/18 10:56:11;;;;;;;1.70;1.70;;;;;;;;;;5069300;28;20487;-72
2022/05/18 10:58:42;;;;;;;1.53;1.53;;;;;;;;;;5062654;28;20440;-74
2022/05/18 11:01:28;;;;;;;1.60;1.60;;;;;;;;;;5064916;28;20421;-74
2022/05/18 11:03:54;;;;;;;2.20;1.77;;;;;;;;;;5065199;28;20506;-72
2022/05/18 11:06:28;;;;;;;5.03;3.03;;;;;;;;;;5063457;28;20941;-75
2022/05/18 11:08:58;;;;;;;1.60;1.50;;;;;;;;;;5071014;28;20651;-75
2022/05/18 11:11:42;;;;;;;1.60;1.50;;;;;;;;;;5063350;28;20450;-74
2022/05/18 11:14:26;;;;;;;2.20;2.20;;;;;;;;;;5064353;28;20512;-75
2022/05/18 11:17:11;;;;;;;2.73;2.50;;;;;;;;;;5065779;28;20461;-75
2022/05/18 11:19:37;;;;;;;1.70;1.70;;;;;;;;;;5065543;28;20429;-74
2022/05/18 11:22:23;;;;;;;2.60;2.50;;;;;;;;;;5065441;28;20453;-73
2022/05/18 11:25:02;;;;;;;1.60;1.60;;;;;;;;;;5066285;28;20510;-74
2022/05/18 11:27:30;;;;;;;2.53;2.33;;;;;;;;;;5065901;28;20433;-73
2022/05/18 11:29:59;;;;;;;2.07;1.97;;;;;;;;;;5066204;28;20502;-73
2022/05/18 11:32:31;;;;;;;1.90;1.80;;;;;;;;;;5063701;28;20518;-73
2022/05/18 11:35:16;;;;;;;2.30;2.10;;;;;;;;;;5060933;28;20475;-71
2022/05/18 11:37:42;;;;;;;2.00;1.77;;;;;;;;;;5060883;28;20448;-75
2022/05/18 11:40:08;;;;;;;2.20;2.10;;;;;;;;;;5068832;28;20441;-74
2022/05/18 11:42:46;;;;;;;2.20;1.70;;;;;;;;;;5058576;28;20514;-74
2022/05/18 11:45:31;;;;;;;10.53;2.33;;;;;;;;;;5059861;28;20421;-74
2022/05/18 11:48:12;;;;;;;1.43;1.43;;;;;;;;;;5049154;28;20953;-74
2022/05/18 11:50:50;;;;;;;2.20;2.17;;;;;;;;;;5063772;28;20492;-74
2022/05/18 11:53:25;;;;;;;1.50;1.50;;;;;;;;;;5066762;28;20798;-73
2022/05/18 11:55:54;;;;;;;1.97;1.80;;;;;;;;;;5067563;28;21754;-77
2022/05/18 11:58:24;;;;;;;1.83;1.83;;;;;;;;;;5065809;28;20556;-74
2022/05/18 12:00:55;;;;;;;1.80;1.80;;;;;;;;;;5068396;28;20476;-75
2022/05/18 12:03:36;;;;;;;7.57;2.37;;;;;;;;;;5066989;28;20495;-74
2022/05/18 12:06:12;;;;;;;2.50;2.03;;;;;;;;;;5064300;28;20432;-76
2022/05/18 12:08:45;;;;;;;3.97;2.07;;;;;;;;;;5065558;28;20455;-74
2022/05/18 12:11:14;;;;;;;2.17;2.10;;;;;;;;;;5068851;28;20479;-74
2022/05/18 12:13:43;;;;;;;2.57;2.40;;;;;;;;;;5060323;28;20429;-74
2022/05/18 12:16:27;;;;;;;2.93;2.50;;;;;;;;;;5064021;28;20513;-73
2022/05/18 12:18:57;;;;;;;2.30;2.10;;;;;;;;;;5068736;28;20443;-72
2022/05/18 12:21:28;;;;;;;2.53;2.00;;;;;;;;;;5068851;28;20487;-72
2022/05/18 12:24:00;;;;;;;2.33;2.23;;;;;;;;;;5062953;28;20421;-72
2022/05/18 12:26:27;;;;;;;2.00;2.00;;;;;;;;;;5065561;28;20575;-73
2022/05/18 12:28:53;;;;;;;3.60;2.50;;;;;;;;;;5064763;28;20434;-74
2022/05/18 12:31:19;;;;;;;2.43;2.33;;;;;;;;;;5057362;28;20434;-77
2022/05/18 12:33:47;;;;;;;2.50;2.40;;;;;;;;;;5066077;28;20800;-74
2022/05/18 12:36:15;;;;;;;1.50;1.50;;;;;;;;;;5063486;28;20477;-74
2022/05/18 12:38:47;;;;;;;1.20;1.20;;;;;;;;;;5063737;28;20430;-75
2022/05/18 12:41:13;;;;;;;1.83;1.73;;;;;;;;;;5067452;28;20448;-72
2022/05/18 12:43:41;;;;;;;4.63;3.00;;;;;;;;;;5064279;28;20422;-72
2022/05/18 12:46:16;;;;;;;1.93;1.83;;;;;;;;;;5066262;28;20498;-75
2022/05/18 12:48:57;;;;;;;3.20;2.90;;;;;;;;;;5064658;28;20433;-73
2022/05/18 12:51:32;;;;;;;5.60;2.10;;;;;;;;;;5061093;28;20952;-73
2022/05/18 12:54:04;;;;;;;2.33;2.23;;;;;;;;;;5057573;28;20960;-75
2022/05/18 12:56:36;;;;;;;2.03;2.03;;;;;;;;;;5065962;28;20847;-74
2022/05/18 12:59:23;;;;;;;5.53;1.97;;;;;;;;;;5067605;28;20913;-74
2022/05/18 13:01:53;;;;;;;2.60;2.50;;;;;;;;;;5061907;28;20439;-75
2022/05/18 13:04:19;;;;;;;1.90;1.80;;;;;;;;;;5054243;28;20445;-74
2022/05/18 13:06:50;;;;;;;2.20;2.20;;;;;;;;;;5064064;28;20820;-82
2022/05/18 13:09:22;;;;;;;2.70;2.60;;;;;;;;;;5066092;28;20193;-75
2022/05/18 13:11:48;;;;;;;2.40;2.30;;;;;;;;;;5065698;28;20472;-73
2022/05/18 13:14:17;;;;;;;2.00;2.00;;;;;;;;;;5064848;28;20464;-73
2022/05/18 13:16:49;;;;;;;3.60;2.20;;;;;;;;;;5068061;28;20723;-73
2022/05/18 13:19:14;;;;;;;2.73;2.70;;;;;;;;;;5070213;28;20454;-73
2022/05/18 13:21:44;;;;;;;2.27;2.03;;;;;;;;;;5068836;28;20469;-74
2022/05/18 13:24:21;;;;;;;2.10;2.00;;;;;;;;;;5068263;28;20198;-75
2022/05/18 13:26:48;;;;;;;2.23;2.13;;;;;;;;;;5064015;28;20514;-75
2022/05/18 13:29:20;;;;;;;2.50;2.40;;;;;;;;;;5064752;28;20433;-75
2022/05/18 13:31:49;;;;;;;7.50;1.97;;;;;;;;;;5065477;28;20442;-75
2022/05/18 13:34:19;;;;;;;2.50;2.40;;;;;;;;;;5066278;28;20469;-73
2022/05/18 13:36:48;;;;;;;2.80;2.27;;;;;;;;;;5060076;28;20489;-76
2022/05/18 13:39:18;;;;;;;2.63;2.53;;;;;;;;;;5065884;28;20413;-72
2022/05/18 13:41:46;;;;;;;2.30;2.20;;;;;;;;;;5062419;28;20874;-74
2022/05/18 13:44:12;;;;;;;2.40;2.20;;;;;;;;;;5061359;28;20449;-72
2022/05/18 13:46:38;;;;;;;2.03;2.03;;;;;;;;;;5067901;28;20437;-75
2022/05/18 13:49:10;;;;;;;1.90;1.90;;;;;;;;;;5069325;28;21124;-74
2022/05/18 13:51:40;;;;;;;2.00;2.00;;;;;;;;;;5064842;28;20448;-73
2022/05/18 13:54:09;;;;;;;6.30;3.13;;;;;;;;;;5068988;28;20921;-72
2022/05/18 13:56:41;;;;;;;2.07;1.97;;;;;;;;;;5066802;28;20606;-72
2022/05/18 13:59:11;;;;;;;5.40;2.90;;;;;;;;;;5067577;28;20434;-75
2022/05/18 14:01:45;;;;;;;2.20;2.10;;;;;;;;;;5067010;28;20438;-72
2022/05/18 14:04:15;;;;;;;2.60;2.50;;;;;;;;;;5067090;28;20524;-73
2022/05/18 14:06:41;;;;;;;2.30;2.30;;;;;;;;;;5065021;28;20438;-74
2022/05/18 14:09:08;;;;;;;2.67;1.90;;;;;;;;;;5069226;28;20425;-72
2022/05/18 14:11:34;;;;;;;2.50;2.10;;;;;;;;;;5069698;28;20429;-75
2022/05/18 14:14:01;;;;;;;1.97;1.87;;;;;;;;;;5068625;28;20642;-75
2022/05/18 14:16:33;;;;;;;2.43;2.40;;;;;;;;;;5067173;28;20982;-76
2022/05/18 14:19:00;;;;;;;2.03;1.93;;;;;;;;;;5062750;28;20945;-74
2022/05/18 14:21:26;;;;;;;2.30;1.97;;;;;;;;;;5067352;28;20441;-74
2022/05/18 14:23:58;;;;;;;2.90;2.70;;;;;;;;;;5066406;28;20504;-75
2022/05/18 14:26:26;;;;;;;3.77;1.93;;;;;;;;;;5066733;28;21057;-74
2022/05/18 14:28:53;;;;;;;1.60;1.60;;;;;;;;;;5064855;28;20925;-75
2022/05/18 14:31:22;;;;;;;1.53;1.53;;;;;;;;;;5066289;28;20542;-75
2022/05/18 14:33:48;;;;;;;1.93;1.87;;;;;;;;;;5060274;28;20425;-74
2022/05/18 14:36:20;;;;;;;5.30;1.90;;;;;;;;;;5064721;28;20805;-73
2022/05/18 14:38:50;;;;;;;2.03;2.03;;;;;;;;;;5062251;28;20571;-74
2022/05/18 14:41:16;;;;;;;3.13;1.47;;;;;;;;;;5066363;28;20452;-73
2022/05/18 14:43:42;;;;;;;1.73;1.63;;;;;;;;;;5061297;28;20460;-77
2022/05/18 14:46:22;;;;;;;5.07;2.00;;;;;;;;;;5066233;28;20417;-76
2022/05/18 14:48:50;;;;;;;2.20;2.10;;;;;;;;;;5065335;28;21147;-77
2022/05/18 14:51:46;;;;;;;2.93;2.23;;;;;;;;;;5062824;28;20433;-73
2022/05/18 14:54:14;;;;;;;2.50;2.33;;;;;;;;;;5055001;28;20807;-74
2022/05/18 14:56:43;;;;;;;5.13;2.53;;;;;;;;;;5068245;28;20481;-73
2022/05/18 14:59:13;;;;;;;2.00;2.00;;;;;;;;;;5068956;28;20425;-75
2022/05/18 15:01:40;;;;;;;1.73;1.73;;;;;;;;;;5064468;28;20434;-76
2022/05/18 15:04:11;;;;;;;3.67;2.67;;;;;;;;;;5069838;28;20926;-72
2022/05/18 15:06:37;;;;;;;2.63;2.03;;;;;;;;;;5071004;28;20429;-75
2022/05/18 15:09:06;;;;;;;1.77;1.67;;;;;;;;;;5066257;28;20427;-76
2022/05/18 15:11:41;;;;;;;2.40;2.10;;;;;;;;;;5063407;28;20914;-76